P/v Golden Gate — WDE5665 — position and weather

sailwx.info

Track history (hours):
 
Tides and Currents Weather Stations Pressure Air Temp Water Temp Dewpoint Dewpoint Depression Visibility Wind Speed Wind Dir Waves Ship Positions

P/v Golden Gate

Owner: San Francisco Bar Pilots Benevolent and Protective, San Francisco, CA. More information available from US FCC via Universal Licensing System and Coast Guard Vessel Documentation Center.

Last reported at 2017-Feb-26 21:33 UTC. Time now 2017-Feb-26 21:41 UTC.
Position N 37°48' W 122°24'.

Length 23 m; draft 2 m.

Type: Pilot. MMSI: 367370010.

Date/timePositionNaut miles runAvg speedWind from/ knotsBaromVisibWave heightAir tempDewpointWater temp
2017-Feb-26 21:33N 37°48' W 122°24'0 0.0
2017-Feb-26 20:33N 37°48' W 122°24'0 0.0
2017-Feb-26 19:34N 37°48' W 122°24'0 0.0
2017-Feb-26 18:34N 37°48' W 122°24'3 3.5
2017-Feb-26 17:33N 37°48' W 122°19'0 0.3
2017-Feb-26 16:34N 37°48' W 122°20'1 0.6
2017-Feb-26 15:33N 37°48' W 122°21'1 0.6
2017-Feb-26 14:34N 37°48' W 122°20'3 3.2
2017-Feb-26 13:33N 37°48' W 122°24'0 0.3
2017-Feb-26 12:34N 37°48' W 122°23'2 1.7
2017-Feb-26 11:34N 37°47' W 122°22'2 1.8
2017-Feb-26 10:33N 37°48' W 122°24'0 0.0
2017-Feb-26 09:33N 37°48' W 122°24'0 0.0
2017-Feb-26 08:33N 37°48' W 122°24'3 3.3
2017-Feb-26 07:33N 37°45' W 122°21'1 0.8
2017-Feb-26 06:34N 37°45' W 122°21'4 4.1
2017-Feb-26 05:33N 37°48' W 122°24'0 0.0
2017-Feb-26 04:33N 37°48' W 122°24'0 0.0
2017-Feb-26 03:33N 37°48' W 122°24'3 3.5
2017-Feb-26 02:33N 37°48' W 122°19'3 3.5
2017-Feb-26 01:34N 37°48' W 122°24'0 0.0
2017-Feb-26 00:33N 37°48' W 122°24'0 0.0
2017-Feb-25 23:33N 37°48' W 122°24'0 0.0
2017-Feb-25 22:33N 37°48' W 122°24'0 0.0
2017-Feb-25 21:33N 37°48' W 122°24'0 0.0
2017-Feb-25 20:33N 37°48' W 122°24'0 0.0
2017-Feb-25 19:33N 37°48' W 122°24'1 1.2
2017-Feb-25 18:33N 37°49' W 122°25'5 4.9
2017-Feb-25 17:33N 37°45' W 122°21'1 0.8
2017-Feb-25 16:34N 37°46' W 122°21'3 3.1
2017-Feb-25 15:33N 37°48' W 122°24'4 3.8
2017-Feb-25 14:34N 37°49' W 122°28'0 0.4
2017-Feb-25 13:34N 37°49' W 122°29'4 3.9
2017-Feb-25 12:33N 37°48' W 122°24'0 0.0
2017-Feb-25 11:33N 37°48' W 122°24'1212.4
2017-Feb-25 10:33N 37°46' W 122°39'1615.7
2017-Feb-25 09:33N 37°48' W 122°20'3 3.4
2017-Feb-25 08:34N 37°48' W 122°24'2 2.1
2017-Feb-25 07:34N 37°47' W 122°21'2 2.1
2017-Feb-25 06:33N 37°48' W 122°24'0 0.0
2017-Feb-25 05:33N 37°48' W 122°24'3 2.6
2017-Feb-25 04:33N 37°48' W 122°20'3 2.6
2017-Feb-25 03:33N 37°48' W 122°24'4 4.1
2017-Feb-25 02:33N 37°45' W 122°20'4 4.2
2017-Feb-25 01:34N 37°48' W 122°24'10 9.8
2017-Feb-25 00:33N 37°46' W 122°36'1010.0
2017-Feb-24 23:34N 37°48' W 122°24'0 0.0
2017-Feb-24 22:34N 37°48' W 122°24'0 0.0
2017-Feb-24 21:34N 37°48' W 122°24'0 0.0
2017-Feb-24 20:33N 37°48' W 122°24'0 0.0
2017-Feb-24 19:33N 37°48' W 122°24'0 0.0
2017-Feb-24 18:33N 37°48' W 122°24'0 0.0
2017-Feb-24 17:34N 37°48' W 122°24'0 0.0
2017-Feb-24 16:33N 37°48' W 122°24'0 0.1
2017-Feb-24 15:34N 37°48' W 122°24'0 0.1
2017-Feb-24 14:33N 37°48' W 122°24'0 0.0
2017-Feb-24 13:33N 37°48' W 122°24'2 1.6
2017-Feb-24 12:34N 37°49' W 122°25'7 6.7
2017-Feb-24 11:33N 37°47' W 122°33'8 7.7
2017-Feb-24 10:33N 37°48' W 122°24'0 0.0
2017-Feb-24 09:34N 37°48' W 122°24'0 0.0
2017-Feb-24 08:33N 37°48' W 122°24'0 0.0
2017-Feb-24 07:34N 37°48' W 122°24'3 2.8
2017-Feb-24 06:34N 37°49' W 122°20'3 2.8
2017-Feb-24 05:33N 37°48' W 122°24'0 0.0
2017-Feb-24 04:33N 37°48' W 122°24'3 2.8
2017-Feb-24 03:34N 37°46' W 122°21'1 0.9
2017-Feb-24 02:33N 37°46' W 122°21'3 3.1
2017-Feb-24 01:33N 37°48' W 122°24'0 0.0
2017-Feb-24 00:33N 37°48' W 122°24'0 0.0
2017-Feb-23 23:33N 37°48' W 122°24'0 0.0
2017-Feb-23 22:34N 37°48' W 122°24'0 0.3
2017-Feb-23 21:34N 37°48' W 122°24'0 0.3
2017-Feb-23 20:33N 37°48' W 122°24'0 0.0
2017-Feb-23 19:33N 37°48' W 122°24'3 2.7
2017-Feb-23 18:33N 37°46' W 122°21'1 1.0
2017-Feb-23 17:34N 37°45' W 122°21'3 2.5
2017-Feb-23 16:33N 37°48' W 122°20'4 4.5
2017-Feb-23 15:34N 37°49' W 122°25'1212.0
2017-Feb-23 14:33N 37°45' W 122°40'1313.0
2017-Feb-23 13:33N 37°48' W 122°24'0 0.0
2017-Feb-23 12:33N 37°48' W 122°24'3 3.4
2017-Feb-23 11:33N 37°46' W 122°21'3 3.4
2017-Feb-23 10:34N 37°48' W 122°24'0 0.0
2017-Feb-23 09:33N 37°48' W 122°24'0 0.0
2017-Feb-23 08:33N 37°48' W 122°24'1110.8
2017-Feb-23 07:33N 37°46' W 122°37'1010.3
2017-Feb-23 06:34N 37°49' W 122°25'1 1.0
2017-Feb-23 05:33N 37°48' W 122°24'0 0.0
2017-Feb-23 04:33N 37°48' W 122°24'0 0.0
2017-Feb-23 03:33N 37°48' W 122°24'0 0.4
2017-Feb-23 02:34N 37°48' W 122°23'0 0.4
2017-Feb-23 01:33N 37°48' W 122°24'0 0.0
2017-Feb-23 00:33N 37°48' W 122°24'0 0.0
2017-Feb-22 23:33N 37°48' W 122°24'0 0.0
2017-Feb-22 22:33N 37°48' W 122°24'0 0.0
2017-Feb-22 21:33N 37°48' W 122°24'0 0.0
2017-Feb-22 20:33N 37°48' W 122°24'0 0.0
2017-Feb-22 19:33N 37°48' W 122°24'0 0.0
2017-Feb-22 18:33N 37°48' W 122°24'0 0.0
2017-Feb-22 17:33N 37°48' W 122°24'0 0.0
2017-Feb-22 16:33N 37°48' W 122°24'1 0.7
2017-Feb-22 15:34N 37°49' W 122°24'4 4.3
2017-Feb-22 14:33N 37°48' W 122°19'4 3.9
2017-Feb-22 13:34N 37°48' W 122°24'1 1.2
2017-Feb-22 12:33N 37°48' W 122°22'1 1.2
2017-Feb-22 11:33N 37°48' W 122°24'2 2.2
2017-Feb-22 10:33N 37°48' W 122°21'2 2.2
2017-Feb-22 09:33N 37°48' W 122°24'0 0.0
2017-Feb-22 08:34N 37°48' W 122°24'0 0.1
2017-Feb-22 07:33N 37°48' W 122°24'2 2.1
2017-Feb-22 06:34N 37°48' W 122°21'1 0.8
2017-Feb-22 05:34N 37°48' W 122°20'1515.4
2017-Feb-22 04:34N 37°46' W 122°40'1312.6
2017-Feb-22 03:33N 37°48' W 122°24'1 0.9
2017-Feb-22 02:33N 37°48' W 122°23'1 0.9
2017-Feb-22 01:33N 37°48' W 122°24'1 0.7
2017-Feb-22 00:33N 37°48' W 122°23'1 0.7
2017-Feb-21 23:33N 37°48' W 122°24'4 4.3
2017-Feb-21 22:33N 37°48' W 122°18'3 3.4
2017-Feb-21 21:33N 37°45' W 122°21'4 3.8
2017-Feb-21 20:33N 37°48' W 122°22'2 1.6
2017-Feb-21 19:34N 37°47' W 122°22'2 1.9
2017-Feb-21 18:33N 37°48' W 122°24'0 0.0
2017-Feb-21 17:33N 37°48' W 122°24'0 0.0
2017-Feb-21 16:33N 37°48' W 122°24'0 0.0
2017-Feb-21 15:34N 37°48' W 122°24'2 2.2
2017-Feb-21 14:34N 37°48' W 122°21'2 2.2
2017-Feb-21 13:33N 37°48' W 122°24'0 0.0
2017-Feb-21 12:33N 37°48' W 122°24'0 0.0
2017-Feb-21 11:33N 37°48' W 122°24'0 0.0
2017-Feb-21 10:33N 37°48' W 122°24'2 1.9
2017-Feb-21 09:33N 37°47' W 122°21'2 2.0
2017-Feb-21 08:33N 37°49' W 122°20'3 3.3
2017-Feb-21 07:33N 37°48' W 122°24'0 0.0
2017-Feb-21 06:33N 37°48' W 122°24'0 0.0
2017-Feb-21 05:33N 37°48' W 122°24'4 4.3
2017-Feb-21 04:34N 37°45' W 122°20'1 1.5
2017-Feb-21 03:33N 37°46' W 122°21'3 2.8
2017-Feb-21 02:34N 37°48' W 122°24'0 0.0
2017-Feb-21 01:34N 37°48' W 122°24'0 0.0
2017-Feb-21 00:33N 37°48' W 122°24'0 0.0
2017-Feb-20 23:34N 37°48' W 122°24'0 0.0
2017-Feb-20 22:34N 37°48' W 122°24'0 0.0
2017-Feb-20 21:33N 37°48' W 122°24'0 0.0
2017-Feb-20 20:33N 37°48' W 122°24'0 0.0
2017-Feb-20 19:33N 37°48' W 122°24'0 0.0
2017-Feb-20 18:33N 37°48' W 122°24'0 0.0
2017-Feb-20 17:33N 37°48' W 122°24'0 0.0
2017-Feb-20 16:33N 37°48' W 122°24'0 0.0
2017-Feb-20 15:33N 37°48' W 122°24'0 0.0
2017-Feb-20 14:33N 37°48' W 122°24'0 0.0
2017-Feb-20 13:33N 37°48' W 122°24'0 0.0
2017-Feb-20 12:33N 37°48' W 122°24'0 0.0
2017-Feb-20 11:33N 37°48' W 122°24'0 0.0
2017-Feb-20 10:33N 37°48' W 122°24'0 0.0
2017-Feb-20 09:33N 37°48' W 122°24'0 0.0
2017-Feb-20 08:33N 37°48' W 122°24'0 0.0
2017-Feb-20 07:33N 37°48' W 122°24'0 0.0
2017-Feb-20 06:33N 37°48' W 122°24'0 0.0
2017-Feb-20 05:33N 37°48' W 122°24'0 0.0
2017-Feb-20 04:33N 37°48' W 122°24'0 0.0
2017-Feb-20 03:33N 37°48' W 122°24'0 0.0
2017-Feb-20 02:33N 37°48' W 122°24'0 0.0
2017-Feb-20 01:33N 37°48' W 122°24'0 0.0
2017-Feb-20 00:33N 37°48' W 122°24'0 0.0
2017-Feb-19 23:33N 37°48' W 122°24'0 0.0
2017-Feb-19 22:33N 37°48' W 122°24'0 0.0
2017-Feb-19 21:33N 37°48' W 122°24'0 0.0
2017-Feb-19 20:33N 37°48' W 122°24'3 2.6
2017-Feb-19 19:33N 37°47' W 122°21'3 2.6
2017-Feb-19 18:33N 37°48' W 122°24'0 0.0
2017-Feb-19 17:33N 37°48' W 122°24'0 0.0
2017-Feb-19 16:33N 37°48' W 122°24'1 0.8
2017-Feb-19 15:33N 37°49' W 122°24'1 0.8
2017-Feb-19 14:33N 37°48' W 122°24'0 0.0
2017-Feb-19 13:33N 37°48' W 122°24'0 0.0
2017-Feb-19 12:33N 37°48' W 122°24'1 0.6
2017-Feb-19 11:34N 37°48' W 122°23'1 0.6
2017-Feb-19 10:33N 37°48' W 122°24'0 0.4
2017-Feb-19 09:33N 37°48' W 122°24'0 0.4
2017-Feb-19 08:33N 37°48' W 122°24'0 0.0
2017-Feb-19 07:33N 37°48' W 122°24'2 2.2
2017-Feb-19 06:34N 37°47' W 122°22'2 2.2
2017-Feb-19 05:33N 37°48' W 122°24'0 0.0
2017-Feb-19 04:33N 37°48' W 122°24'0 0.0
2017-Feb-19 03:33N 37°48' W 122°24'3 2.8
2017-Feb-19 02:33N 37°47' W 122°21'3 2.8
2017-Feb-19 01:33N 37°48' W 122°24'3 3.3
2017-Feb-19 00:34N 37°46' W 122°21'3 3.3
2017-Feb-18 23:33N 37°48' W 122°24'0 0.0
2017-Feb-18 22:33N 37°48' W 122°24'0 0.0
2017-Feb-18 21:33N 37°48' W 122°24'0 0.0
2017-Feb-18 20:33N 37°48' W 122°24'0 0.0
2017-Feb-18 19:33N 37°48' W 122°24'1 1.2
2017-Feb-18 18:33N 37°49' W 122°25'6 5.6
2017-Feb-18 17:34N 37°44' W 122°20'4 4.5
2017-Feb-18 16:34N 37°48' W 122°24'2 2.5
2017-Feb-18 15:34N 37°48' W 122°21'0 0.4
2017-Feb-18 14:34N 37°49' W 122°20'3 2.6
2017-Feb-18 13:33N 37°48' W 122°24'2 1.9
2017-Feb-18 12:34N 37°47' W 122°22'2 1.9
2017-Feb-18 11:33N 37°48' W 122°24'0 0.0
2017-Feb-18 10:33N 37°48' W 122°24'2 1.7
2017-Feb-18 09:33N 37°48' W 122°22'2 1.7
2017-Feb-18 08:33N 37°48' W 122°24'0 0.0
2017-Feb-18 07:33N 37°48' W 122°24'0 0.0
2017-Feb-18 06:33N 37°48' W 122°24'5 4.7
2017-Feb-18 05:33N 37°48' W 122°30'5 4.7
2017-Feb-18 04:33N 37°48' W 122°24'0 0.0
2017-Feb-18 03:33N 37°48' W 122°24'5 4.8
2017-Feb-18 02:33N 37°48' W 122°18'2 2.4
2017-Feb-18 01:34N 37°48' W 122°21'1 1.2
2017-Feb-18 00:34N 37°48' W 122°19'4 3.6
2017-Feb-17 23:33N 37°48' W 122°24'0 0.0
2017-Feb-17 22:33N 37°48' W 122°24'0 0.0
2017-Feb-17 21:33N 37°48' W 122°24'0 0.0
2017-Feb-17 20:33N 37°48' W 122°24'4 3.9
2017-Feb-17 19:33N 37°45' W 122°21'4 3.9
2017-Feb-17 18:34N 37°48' W 122°24'0 0.0
2017-Feb-17 17:33N 37°48' W 122°24'0 0.0
2017-Feb-17 16:32N 37°48' W 122°24'0 0.0
2017-Feb-17 15:33N 37°48' W 122°24'1 1.4
2017-Feb-17 14:34N 37°48' W 122°22'1 1.4
2017-Feb-17 13:33N 37°48' W 122°24'0 0.0
2017-Feb-17 12:33N 37°48' W 122°24'0 0.0
2017-Feb-17 11:33N 37°48' W 122°24'2 2.3
2017-Feb-17 10:34N 37°48' W 122°21'2 2.3
2017-Feb-17 09:33N 37°48' W 122°24'0 0.0
2017-Feb-17 08:33N 37°48' W 122°24'1 0.6
2017-Feb-17 07:33N 37°48' W 122°23'1 0.6
2017-Feb-17 06:33N 37°48' W 122°24'0 0.0
2017-Feb-17 05:33N 37°48' W 122°24'1 0.9
2017-Feb-17 04:33N 37°48' W 122°23'1 0.9
2017-Feb-17 03:34N 37°48' W 122°24'0 0.0
2017-Feb-17 02:34N 37°48' W 122°24'0 0.0
2017-Feb-17 01:33N 37°48' W 122°24'2 1.9
2017-Feb-17 00:34N 37°48' W 122°21'2 1.9
2017-Feb-16 23:33N 37°48' W 122°24'1010.1
2017-Feb-16 22:33N 37°46' W 122°36'1212.0
2017-Feb-16 21:34N 37°46' W 122°21'  
Track history (hours):
 
Tides and Currents Weather Stations Pressure Air Temp Water Temp Dewpoint Dewpoint Depression Visibility Wind Speed Wind Dir Waves Ship Positions

P/v Golden Gate

Owner: San Francisco Bar Pilots Benevolent and Protective, San Francisco, CA. More information available from US FCC via Universal Licensing System and Coast Guard Vessel Documentation Center.

Last reported at 2017-Feb-26 21:33 UTC. Time now 2017-Feb-26 21:41 UTC.
Position N 37°48' W 122°24'.

Length 23 m; draft 2 m.

Type: Pilot. MMSI: 367370010.

Date/timePositionNaut miles runAvg speedWind from/ knotsBaromVisibWave heightAir tempDewpointWater temp
2017-Feb-26 21:33N 37°48' W 122°24'0 0.0
2017-Feb-26 20:33N 37°48' W 122°24'0 0.0
2017-Feb-26 19:34N 37°48' W 122°24'0 0.0
2017-Feb-26 18:34N 37°48' W 122°24'3 3.5
2017-Feb-26 17:33N 37°48' W 122°19'0 0.3
2017-Feb-26 16:34N 37°48' W 122°20'1 0.6
2017-Feb-26 15:33N 37°48' W 122°21'1 0.6
2017-Feb-26 14:34N 37°48' W 122°20'3 3.2
2017-Feb-26 13:33N 37°48' W 122°24'0 0.3
2017-Feb-26 12:34N 37°48' W 122°23'2 1.7
2017-Feb-26 11:34N 37°47' W 122°22'2 1.8
2017-Feb-26 10:33N 37°48' W 122°24'0 0.0
2017-Feb-26 09:33N 37°48' W 122°24'0 0.0
2017-Feb-26 08:33N 37°48' W 122°24'3 3.3
2017-Feb-26 07:33N 37°45' W 122°21'1 0.8
2017-Feb-26 06:34N 37°45' W 122°21'4 4.1
2017-Feb-26 05:33N 37°48' W 122°24'0 0.0
2017-Feb-26 04:33N 37°48' W 122°24'0 0.0
2017-Feb-26 03:33N 37°48' W 122°24'3 3.5
2017-Feb-26 02:33N 37°48' W 122°19'3 3.5
2017-Feb-26 01:34N 37°48' W 122°24'0 0.0
2017-Feb-26 00:33N 37°48' W 122°24'0 0.0
2017-Feb-25 23:33N 37°48' W 122°24'0 0.0
2017-Feb-25 22:33N 37°48' W 122°24'0 0.0
2017-Feb-25 21:33N 37°48' W 122°24'0 0.0
2017-Feb-25 20:33N 37°48' W 122°24'0 0.0
2017-Feb-25 19:33N 37°48' W 122°24'1 1.2
2017-Feb-25 18:33N 37°49' W 122°25'5 4.9
2017-Feb-25 17:33N 37°45' W 122°21'1 0.8
2017-Feb-25 16:34N 37°46' W 122°21'3 3.1
2017-Feb-25 15:33N 37°48' W 122°24'4 3.8
2017-Feb-25 14:34N 37°49' W 122°28'0 0.4
2017-Feb-25 13:34N 37°49' W 122°29'4 3.9
2017-Feb-25 12:33N 37°48' W 122°24'0 0.0
2017-Feb-25 11:33N 37°48' W 122°24'1212.4
2017-Feb-25 10:33N 37°46' W 122°39'1615.7
2017-Feb-25 09:33N 37°48' W 122°20'3 3.4
2017-Feb-25 08:34N 37°48' W 122°24'2 2.1
2017-Feb-25 07:34N 37°47' W 122°21'2 2.1
2017-Feb-25 06:33N 37°48' W 122°24'0 0.0
2017-Feb-25 05:33N 37°48' W 122°24'3 2.6
2017-Feb-25 04:33N 37°48' W 122°20'3 2.6
2017-Feb-25 03:33N 37°48' W 122°24'4 4.1
2017-Feb-25 02:33N 37°45' W 122°20'4 4.2
2017-Feb-25 01:34N 37°48' W 122°24'10 9.8
2017-Feb-25 00:33N 37°46' W 122°36'1010.0
2017-Feb-24 23:34N 37°48' W 122°24'0 0.0
2017-Feb-24 22:34N 37°48' W 122°24'0 0.0
2017-Feb-24 21:34N 37°48' W 122°24'0 0.0
2017-Feb-24 20:33N 37°48' W 122°24'0 0.0
2017-Feb-24 19:33N 37°48' W 122°24'0 0.0
2017-Feb-24 18:33N 37°48' W 122°24'0 0.0
2017-Feb-24 17:34N 37°48' W 122°24'0 0.0
2017-Feb-24 16:33N 37°48' W 122°24'0 0.1
2017-Feb-24 15:34N 37°48' W 122°24'0 0.1
2017-Feb-24 14:33N 37°48' W 122°24'0 0.0
2017-Feb-24 13:33N 37°48' W 122°24'2 1.6
2017-Feb-24 12:34N 37°49' W 122°25'7 6.7
2017-Feb-24 11:33N 37°47' W 122°33'8 7.7
2017-Feb-24 10:33N 37°48' W 122°24'0 0.0
2017-Feb-24 09:34N 37°48' W 122°24'0 0.0
2017-Feb-24 08:33N 37°48' W 122°24'0 0.0
2017-Feb-24 07:34N 37°48' W 122°24'3 2.8
2017-Feb-24 06:34N 37°49' W 122°20'3 2.8
2017-Feb-24 05:33N 37°48' W 122°24'0 0.0
2017-Feb-24 04:33N 37°48' W 122°24'3 2.8
2017-Feb-24 03:34N 37°46' W 122°21'1 0.9
2017-Feb-24 02:33N 37°46' W 122°21'3 3.1
2017-Feb-24 01:33N 37°48' W 122°24'0 0.0
2017-Feb-24 00:33N 37°48' W 122°24'0 0.0
2017-Feb-23 23:33N 37°48' W 122°24'0 0.0
2017-Feb-23 22:34N 37°48' W 122°24'0 0.3
2017-Feb-23 21:34N 37°48' W 122°24'0 0.3
2017-Feb-23 20:33N 37°48' W 122°24'0 0.0
2017-Feb-23 19:33N 37°48' W 122°24'3 2.7
2017-Feb-23 18:33N 37°46' W 122°21'1 1.0
2017-Feb-23 17:34N 37°45' W 122°21'3 2.5
2017-Feb-23 16:33N 37°48' W 122°20'4 4.5
2017-Feb-23 15:34N 37°49' W 122°25'1212.0
2017-Feb-23 14:33N 37°45' W 122°40'1313.0
2017-Feb-23 13:33N 37°48' W 122°24'0 0.0
2017-Feb-23 12:33N 37°48' W 122°24'3 3.4
2017-Feb-23 11:33N 37°46' W 122°21'3 3.4
2017-Feb-23 10:34N 37°48' W 122°24'0 0.0
2017-Feb-23 09:33N 37°48' W 122°24'0 0.0
2017-Feb-23 08:33N 37°48' W 122°24'1110.8
2017-Feb-23 07:33N 37°46' W 122°37'1010.3
2017-Feb-23 06:34N 37°49' W 122°25'1 1.0
2017-Feb-23 05:33N 37°48' W 122°24'0 0.0
2017-Feb-23 04:33N 37°48' W 122°24'0 0.0
2017-Feb-23 03:33N 37°48' W 122°24'0 0.4
2017-Feb-23 02:34N 37°48' W 122°23'0 0.4
2017-Feb-23 01:33N 37°48' W 122°24'0 0.0
2017-Feb-23 00:33N 37°48' W 122°24'0 0.0
2017-Feb-22 23:33N 37°48' W 122°24'0 0.0
2017-Feb-22 22:33N 37°48' W 122°24'0 0.0
2017-Feb-22 21:33N 37°48' W 122°24'0 0.0
2017-Feb-22 20:33N 37°48' W 122°24'0 0.0
2017-Feb-22 19:33N 37°48' W 122°24'0 0.0
2017-Feb-22 18:33N 37°48' W 122°24'0 0.0
2017-Feb-22 17:33N 37°48' W 122°24'0 0.0
2017-Feb-22 16:33N 37°48' W 122°24'1 0.7
2017-Feb-22 15:34N 37°49' W 122°24'4 4.3
2017-Feb-22 14:33N 37°48' W 122°19'4 3.9
2017-Feb-22 13:34N 37°48' W 122°24'1 1.2
2017-Feb-22 12:33N 37°48' W 122°22'1 1.2
2017-Feb-22 11:33N 37°48' W 122°24'2 2.2
2017-Feb-22 10:33N 37°48' W 122°21'2 2.2
2017-Feb-22 09:33N 37°48' W 122°24'0 0.0
2017-Feb-22 08:34N 37°48' W 122°24'0 0.1
2017-Feb-22 07:33N 37°48' W 122°24'2 2.1
2017-Feb-22 06:34N 37°48' W 122°21'1 0.8
2017-Feb-22 05:34N 37°48' W 122°20'1515.4
2017-Feb-22 04:34N 37°46' W 122°40'1312.6
2017-Feb-22 03:33N 37°48' W 122°24'1 0.9
2017-Feb-22 02:33N 37°48' W 122°23'1 0.9
2017-Feb-22 01:33N 37°48' W 122°24'1 0.7
2017-Feb-22 00:33N 37°48' W 122°23'1 0.7
2017-Feb-21 23:33N 37°48' W 122°24'4 4.3
2017-Feb-21 22:33N 37°48' W 122°18'3 3.4
2017-Feb-21 21:33N 37°45' W 122°21'4 3.8
2017-Feb-21 20:33N 37°48' W 122°22'2 1.6
2017-Feb-21 19:34N 37°47' W 122°22'2 1.9
2017-Feb-21 18:33N 37°48' W 122°24'0 0.0
2017-Feb-21 17:33N 37°48' W 122°24'0 0.0
2017-Feb-21 16:33N 37°48' W 122°24'0 0.0
2017-Feb-21 15:34N 37°48' W 122°24'2 2.2
2017-Feb-21 14:34N 37°48' W 122°21'2 2.2
2017-Feb-21 13:33N 37°48' W 122°24'0 0.0
2017-Feb-21 12:33N 37°48' W 122°24'0 0.0
2017-Feb-21 11:33N 37°48' W 122°24'0 0.0
2017-Feb-21 10:33N 37°48' W 122°24'2 1.9
2017-Feb-21 09:33N 37°47' W 122°21'2 2.0
2017-Feb-21 08:33N 37°49' W 122°20'3 3.3
2017-Feb-21 07:33N 37°48' W 122°24'0 0.0
2017-Feb-21 06:33N 37°48' W 122°24'0 0.0
2017-Feb-21 05:33N 37°48' W 122°24'4 4.3
2017-Feb-21 04:34N 37°45' W 122°20'1 1.5
2017-Feb-21 03:33N 37°46' W 122°21'3 2.8
2017-Feb-21 02:34N 37°48' W 122°24'0 0.0
2017-Feb-21 01:34N 37°48' W 122°24'0 0.0
2017-Feb-21 00:33N 37°48' W 122°24'0 0.0
2017-Feb-20 23:34N 37°48' W 122°24'0 0.0
2017-Feb-20 22:34N 37°48' W 122°24'0 0.0
2017-Feb-20 21:33N 37°48' W 122°24'0 0.0
2017-Feb-20 20:33N 37°48' W 122°24'0 0.0
2017-Feb-20 19:33N 37°48' W 122°24'0 0.0
2017-Feb-20 18:33N 37°48' W 122°24'0 0.0
2017-Feb-20 17:33N 37°48' W 122°24'0 0.0
2017-Feb-20 16:33N 37°48' W 122°24'0 0.0
2017-Feb-20 15:33N 37°48' W 122°24'0 0.0
2017-Feb-20 14:33N 37°48' W 122°24'0 0.0
2017-Feb-20 13:33N 37°48' W 122°24'0 0.0
2017-Feb-20 12:33N 37°48' W 122°24'0 0.0
2017-Feb-20 11:33N 37°48' W 122°24'0 0.0
2017-Feb-20 10:33N 37°48' W 122°24'0 0.0
2017-Feb-20 09:33N 37°48' W 122°24'0 0.0
2017-Feb-20 08:33N 37°48' W 122°24'0 0.0
2017-Feb-20 07:33N 37°48' W 122°24'0 0.0
2017-Feb-20 06:33N 37°48' W 122°24'0 0.0
2017-Feb-20 05:33N 37°48' W 122°24'0 0.0
2017-Feb-20 04:33N 37°48' W 122°24'0 0.0
2017-Feb-20 03:33N 37°48' W 122°24'0 0.0
2017-Feb-20 02:33N 37°48' W 122°24'0 0.0
2017-Feb-20 01:33N 37°48' W 122°24'0 0.0
2017-Feb-20 00:33N 37°48' W 122°24'0 0.0
2017-Feb-19 23:33N 37°48' W 122°24'0 0.0
2017-Feb-19 22:33N 37°48' W 122°24'0 0.0
2017-Feb-19 21:33N 37°48' W 122°24'0 0.0
2017-Feb-19 20:33N 37°48' W 122°24'3 2.6
2017-Feb-19 19:33N 37°47' W 122°21'3 2.6
2017-Feb-19 18:33N 37°48' W 122°24'0 0.0
2017-Feb-19 17:33N 37°48' W 122°24'0 0.0
2017-Feb-19 16:33N 37°48' W 122°24'1 0.8
2017-Feb-19 15:33N 37°49' W 122°24'1 0.8
2017-Feb-19 14:33N 37°48' W 122°24'0 0.0
2017-Feb-19 13:33N 37°48' W 122°24'0 0.0
2017-Feb-19 12:33N 37°48' W 122°24'1 0.6
2017-Feb-19 11:34N 37°48' W 122°23'1 0.6
2017-Feb-19 10:33N 37°48' W 122°24'0 0.4
2017-Feb-19 09:33N 37°48' W 122°24'0 0.4
2017-Feb-19 08:33N 37°48' W 122°24'0 0.0
2017-Feb-19 07:33N 37°48' W 122°24'2 2.2
2017-Feb-19 06:34N 37°47' W 122°22'2 2.2
2017-Feb-19 05:33N 37°48' W 122°24'0 0.0
2017-Feb-19 04:33N 37°48' W 122°24'0 0.0
2017-Feb-19 03:33N 37°48' W 122°24'3 2.8
2017-Feb-19 02:33N 37°47' W 122°21'3 2.8
2017-Feb-19 01:33N 37°48' W 122°24'3 3.3
2017-Feb-19 00:34N 37°46' W 122°21'3 3.3
2017-Feb-18 23:33N 37°48' W 122°24'0 0.0
2017-Feb-18 22:33N 37°48' W 122°24'0 0.0
2017-Feb-18 21:33N 37°48' W 122°24'0 0.0
2017-Feb-18 20:33N 37°48' W 122°24'0 0.0
2017-Feb-18 19:33N 37°48' W 122°24'1 1.2
2017-Feb-18 18:33N 37°49' W 122°25'6 5.6
2017-Feb-18 17:34N 37°44' W 122°20'4 4.5
2017-Feb-18 16:34N 37°48' W 122°24'2 2.5
2017-Feb-18 15:34N 37°48' W 122°21'0 0.4
2017-Feb-18 14:34N 37°49' W 122°20'3 2.6
2017-Feb-18 13:33N 37°48' W 122°24'2 1.9
2017-Feb-18 12:34N 37°47' W 122°22'2 1.9
2017-Feb-18 11:33N 37°48' W 122°24'0 0.0
2017-Feb-18 10:33N 37°48' W 122°24'2 1.7
2017-Feb-18 09:33N 37°48' W 122°22'2 1.7
2017-Feb-18 08:33N 37°48' W 122°24'0 0.0
2017-Feb-18 07:33N 37°48' W 122°24'0 0.0
2017-Feb-18 06:33N 37°48' W 122°24'5 4.7
2017-Feb-18 05:33N 37°48' W 122°30'5 4.7
2017-Feb-18 04:33N 37°48' W 122°24'0 0.0
2017-Feb-18 03:33N 37°48' W 122°24'5 4.8
2017-Feb-18 02:33N 37°48' W 122°18'2 2.4
2017-Feb-18 01:34N 37°48' W 122°21'1 1.2
2017-Feb-18 00:34N 37°48' W 122°19'4 3.6
2017-Feb-17 23:33N 37°48' W 122°24'0 0.0
2017-Feb-17 22:33N 37°48' W 122°24'0 0.0
2017-Feb-17 21:33N 37°48' W 122°24'0 0.0
2017-Feb-17 20:33N 37°48' W 122°24'4 3.9
2017-Feb-17 19:33N 37°45' W 122°21'4 3.9
2017-Feb-17 18:34N 37°48' W 122°24'0 0.0
2017-Feb-17 17:33N 37°48' W 122°24'0 0.0
2017-Feb-17 16:32N 37°48' W 122°24'0 0.0
2017-Feb-17 15:33N 37°48' W 122°24'1 1.4
2017-Feb-17 14:34N 37°48' W 122°22'1 1.4
2017-Feb-17 13:33N 37°48' W 122°24'0 0.0
2017-Feb-17 12:33N 37°48' W 122°24'0 0.0
2017-Feb-17 11:33N 37°48' W 122°24'2 2.3
2017-Feb-17 10:34N 37°48' W 122°21'2 2.3
2017-Feb-17 09:33N 37°48' W 122°24'0 0.0
2017-Feb-17 08:33N 37°48' W 122°24'1 0.6
2017-Feb-17 07:33N 37°48' W 122°23'1 0.6
2017-Feb-17 06:33N 37°48' W 122°24'0 0.0
2017-Feb-17 05:33N 37°48' W 122°24'1 0.9
2017-Feb-17 04:33N 37°48' W 122°23'1 0.9
2017-Feb-17 03:34N 37°48' W 122°24'0 0.0
2017-Feb-17 02:34N 37°48' W 122°24'0 0.0
2017-Feb-17 01:33N 37°48' W 122°24'2 1.9
2017-Feb-17 00:34N 37°48' W 122°21'2 1.9
2017-Feb-16 23:33N 37°48' W 122°24'1010.1
2017-Feb-16 22:33N 37°46' W 122°36'1212.0
2017-Feb-16 21:34N 37°46' W 122°21'  

Dump ship's entire track history